createdAt,value
2022-11-30T00:00:28.252Z,100227.75
2022-11-30T00:03:16.260Z,100229.66
2022-11-30T00:06:05.800Z,100231.53
2022-11-30T00:08:54.415Z,100232.41
2022-11-30T00:11:42.417Z,100236.31
2022-11-30T00:14:31.718Z,100231.16
2022-11-30T00:17:19.659Z,100229.34
2022-11-30T00:20:09.494Z,100223.19
2022-11-30T00:22:58.109Z,100224.75
2022-11-30T00:25:46.019Z,100220.53
2022-11-30T00:28:35.093Z,100217.78
2022-11-30T00:31:24.916Z,100221.22
2022-11-30T00:34:12.950Z,100217.94
2022-11-30T00:37:00.888Z,100217.16
2022-11-30T00:39:48.924Z,100216.69
2022-11-30T00:42:36.890Z,100221.00
2022-11-30T00:45:24.806Z,100225.34
2022-11-30T00:48:14.053Z,100220.94
2022-11-30T00:51:02.062Z,100226.06
2022-11-30T00:53:49.998Z,100222.63
2022-11-30T00:56:37.992Z,100230.38
2022-11-30T00:59:25.954Z,100230.94
2022-11-30T01:02:14.157Z,100227.75
2022-11-30T01:05:03.490Z,100232.50
2022-11-30T01:07:51.612Z,100231.13
2022-11-30T01:10:41.979Z,100240.16
2022-11-30T01:13:29.902Z,100237.88
2022-11-30T01:16:20.090Z,100242.06
2022-11-30T01:19:08.087Z,100237.50
2022-11-30T01:21:57.344Z,100238.53
2022-11-30T01:24:45.628Z,100242.19
2022-11-30T01:27:33.741Z,100232.38
2022-11-30T01:30:21.670Z,100232.72
2022-11-30T01:33:09.566Z,100232.47
2022-11-30T01:36:01.732Z,100239.88
2022-11-30T01:38:53.174Z,100235.91
2022-11-30T01:41:41.722Z,100247.19
2022-11-30T01:44:55.176Z,100243.31
2022-11-30T01:47:48.628Z,100245.38
2022-11-30T01:50:37.608Z,100238.50
2022-11-30T01:53:25.859Z,100232.56
2022-11-30T01:56:15.249Z,100238.38
2022-11-30T01:59:03.337Z,100242.25
2022-11-30T02:01:52.633Z,100238.84
2022-11-30T02:04:41.055Z,100246.34
2022-11-30T02:07:29.359Z,100241.69
2022-11-30T02:10:18.944Z,100241.91
2022-11-30T02:13:24.225Z,100239.97
2022-11-30T02:16:25.292Z,100242.47
2022-11-30T02:19:34.296Z,100238.50
2022-11-30T02:22:37.674Z,100238.38
2022-11-30T02:25:37.502Z,100236.00
2022-11-30T02:28:46.999Z,100237.84
2022-11-30T02:31:43.734Z,100243.06
2022-11-30T02:34:35.034Z,100239.78
2022-11-30T02:37:25.045Z,100249.44
2022-11-30T02:40:17.964Z,100247.59
2022-11-30T02:43:07.909Z,100246.78
2022-11-30T02:46:06.858Z,100234.25
2022-11-30T02:49:03.222Z,100242.72
2022-11-30T02:51:53.179Z,100244.88
2022-11-30T02:54:41.439Z,100253.59
2022-11-30T02:57:29.397Z,100245.22
2022-11-30T03:00:18.321Z,100244.59
2022-11-30T03:03:07.619Z,100243.38
2022-11-30T03:05:55.533Z,100243.97
2022-11-30T03:08:43.477Z,100240.53
2022-11-30T03:11:31.421Z,100242.72
2022-11-30T03:14:19.358Z,100244.41
2022-11-30T03:17:07.467Z,100248.28
2022-11-30T03:19:56.740Z,100247.16
2022-11-30T03:22:44.679Z,100258.78
2022-11-30T03:25:33.257Z,100257.22
2022-11-30T03:28:21.171Z,100257.88
2022-11-30T03:31:12.224Z,100257.22
2022-11-30T03:34:00.364Z,100255.59
2022-11-30T03:36:49.634Z,100265.88
2022-11-30T03:39:37.574Z,100260.41
2022-11-30T03:42:25.489Z,100256.16
2022-11-30T03:45:13.451Z,100255.44
2022-11-30T03:48:01.395Z,100260.91
2022-11-30T03:50:49.681Z,100259.69
2022-11-30T03:53:39.375Z,100263.91
2022-11-30T03:56:27.292Z,100255.38
2022-11-30T03:59:15.234Z,100260.22
2022-11-30T04:02:03.223Z,100255.81
2022-11-30T04:04:51.143Z,100261.28
2022-11-30T04:07:39.105Z,100266.06
2022-11-30T04:10:28.437Z,100265.44
2022-11-30T04:13:16.347Z,100271.81
2022-11-30T04:16:04.912Z,100248.84
2022-11-30T04:18:52.851Z,100264.75
2022-11-30T04:21:40.870Z,100262.81
2022-11-30T04:24:28.902Z,100267.94
2022-11-30T04:27:18.163Z,100265.88
2022-11-30T04:30:07.610Z,100264.38
2022-11-30T04:32:55.584Z,100263.25
2022-11-30T04:35:45.815Z,100261.31
2022-11-30T04:38:34.315Z,100261.75
2022-11-30T04:41:22.228Z,100260.63
2022-11-30T04:44:11.667Z,100265.72
2022-11-30T04:46:59.652Z,100263.44
2022-11-30T04:49:47.629Z,100264.84
2022-11-30T04:52:35.742Z,100259.34
2022-11-30T04:55:23.665Z,100257.34
2022-11-30T04:58:11.607Z,100257.97
2022-11-30T05:01:00.922Z,100252.84
2022-11-30T05:03:48.930Z,100248.50
2022-11-30T05:06:36.852Z,100266.44
2022-11-30T05:09:24.786Z,100273.94
2022-11-30T05:12:12.670Z,100273.59
2022-11-30T05:15:00.746Z,100279.53
2022-11-30T05:17:50.109Z,100270.88
2022-11-30T05:20:38.021Z,100270.53
2022-11-30T05:23:25.953Z,100278.53
2022-11-30T05:26:14.132Z,100278.19
2022-11-30T05:29:02.362Z,100282.59
2022-11-30T05:31:50.552Z,100283.31
2022-11-30T05:34:50.133Z,100278.28
2022-11-30T05:37:39.555Z,100281.03
2022-11-30T05:40:28.767Z,100278.44
2022-11-30T05:43:16.929Z,100278.53
2022-11-30T05:46:08.123Z,100277.19
2022-11-30T05:48:56.016Z,100285.41
2022-11-30T05:51:45.316Z,100284.53
2022-11-30T05:54:34.586Z,100286.38
2022-11-30T05:57:22.608Z,100285.81
2022-11-30T06:00:11.462Z,100286.59
2022-11-30T06:03:02.512Z,100288.66
2022-11-30T06:05:52.244Z,100286.38
2022-11-30T06:08:41.690Z,100280.91
2022-11-30T06:11:29.612Z,100282.38
2022-11-30T06:14:17.787Z,100285.47
2022-11-30T06:17:05.767Z,100286.81
2022-11-30T06:19:53.718Z,100287.94
2022-11-30T06:22:41.649Z,100288.56
2022-11-30T06:25:32.013Z,100284.47
2022-11-30T06:28:19.930Z,100281.72
2022-11-30T06:31:08.871Z,100293.00
2022-11-30T06:33:58.065Z,100285.50
2022-11-30T06:36:45.991Z,100292.13
2022-11-30T06:40:04.179Z,100296.16
2022-11-30T06:42:43.225Z,100281.13
2022-11-30T06:45:31.632Z,100292.06
2022-11-30T06:48:20.751Z,100293.00
2022-11-30T06:51:09.878Z,100292.53
2022-11-30T06:53:57.975Z,100286.28
2022-11-30T06:56:46.617Z,100286.41
2022-11-30T06:59:36.851Z,100297.69
2022-11-30T07:02:25.111Z,100265.59
2022-11-30T07:04:52.758Z,100300.19
2022-11-30T07:07:20.536Z,100290.84
2022-11-30T07:09:48.290Z,100299.72
2022-11-30T07:12:16.220Z,100302.81
2022-11-30T07:14:45.740Z,100299.28
2022-11-30T07:17:13.735Z,100306.81
2022-11-30T07:19:41.428Z,100304.84
2022-11-30T07:22:09.080Z,100307.25
2022-11-30T07:24:54.256Z,100303.47
2022-11-30T07:27:21.965Z,100308.94
2022-11-30T07:29:51.585Z,100308.69
2022-11-30T07:32:19.673Z,100315.94
2022-11-30T07:34:47.710Z,100306.94
2022-11-30T07:37:15.565Z,100304.91
2022-11-30T07:39:43.392Z,100310.94
2022-11-30T07:42:11.021Z,100312.72
2022-11-30T07:44:38.609Z,100307.63
2022-11-30T07:47:07.627Z,100317.91
2022-11-30T07:49:35.396Z,100317.66
2022-11-30T07:52:04.519Z,100316.59
2022-11-30T07:54:32.177Z,100313.97
2022-11-30T07:56:59.789Z,100326.28
2022-11-30T07:59:27.411Z,100323.31
2022-11-30T08:01:55.093Z,100322.78
2022-11-30T08:04:24.457Z,100332.72
2022-11-30T08:06:54.608Z,100329.16
2022-11-30T08:09:22.235Z,100328.47
2022-11-30T08:11:50.553Z,100331.16
2022-11-30T08:14:18.301Z,100333.97
2022-11-30T08:16:46.042Z,100332.84
2022-11-30T08:19:13.845Z,100338.66
2022-11-30T08:21:42.817Z,100338.22
2022-11-30T08:24:12.913Z,100335.59
2022-11-30T08:26:41.015Z,100338.84
2022-11-30T08:29:11.387Z,100206.81
2022-11-30T08:31:39.851Z,100307.91
2022-11-30T08:34:10.485Z,100348.66
2022-11-30T08:36:38.921Z,100347.16
2022-11-30T08:39:09.738Z,100351.50
2022-11-30T08:41:39.001Z,100354.59
2022-11-30T08:44:07.089Z,100343.00
2022-11-30T08:46:51.859Z,100358.56
2022-11-30T08:49:23.030Z,100359.47
2022-11-30T08:52:16.534Z,100343.00
2022-11-30T08:54:44.850Z,100361.66
2022-11-30T08:57:12.751Z,100355.22
2022-11-30T08:59:40.408Z,100364.84
2022-11-30T09:02:10.048Z,100366.78
2022-11-30T09:04:37.753Z,100371.22
2022-11-30T09:07:05.506Z,100372.38
2022-11-30T09:09:33.556Z,100363.44
2022-11-30T09:12:02.747Z,100374.66
2022-11-30T09:14:30.513Z,100378.53
2022-11-30T09:16:58.196Z,100375.34
2022-11-30T09:19:26.453Z,100383.34
2022-11-30T09:21:55.415Z,100372.72
2022-11-30T09:24:23.245Z,100373.78
2022-11-30T09:26:50.918Z,100370.31
2022-11-30T09:29:19.904Z,100381.38
2022-11-30T09:31:48.994Z,100379.53
2022-11-30T09:34:16.644Z,100375.75
2022-11-30T09:36:44.230Z,100368.97
2022-11-30T09:39:12.675Z,100373.47
2022-11-30T09:42:13.832Z,100377.91
2022-11-30T09:44:51.461Z,100377.38
2022-11-30T09:47:40.108Z,100367.34
2022-11-30T09:50:13.885Z,100384.84
2022-11-30T09:52:44.391Z,100372.81
2022-11-30T09:55:16.057Z,100378.88
2022-11-30T09:57:47.334Z,100380.25
2022-11-30T10:00:19.182Z,100376.59
2022-11-30T10:02:47.635Z,100370.53
2022-11-30T10:05:17.038Z,100375.34
2022-11-30T10:07:57.512Z,100372.59
2022-11-30T10:10:33.835Z,100371.66
2022-11-30T10:13:17.294Z,100372.38
2022-11-30T10:15:58.658Z,100370.59
2022-11-30T10:18:37.827Z,100369.19
2022-11-30T10:21:17.979Z,100366.38
2022-11-30T10:23:58.988Z,100253.94
2022-11-30T10:26:35.151Z,100376.34
2022-11-30T10:29:13.835Z,100371.84
2022-11-30T10:31:44.900Z,100365.19
2022-11-30T10:34:20.468Z,100365.66
2022-11-30T10:36:53.280Z,100366.97
2022-11-30T10:39:25.575Z,100364.59
2022-11-30T10:41:57.701Z,100362.53
2022-11-30T10:44:29.840Z,100361.88
2022-11-30T10:47:02.008Z,100359.69
2022-11-30T10:49:32.119Z,100354.25
2022-11-30T10:52:04.061Z,100349.63
2022-11-30T10:54:32.732Z,100349.81
2022-11-30T10:57:02.517Z,100346.97
2022-11-30T10:59:39.506Z,100339.97
2022-11-30T11:02:35.169Z,100345.97
2022-11-30T11:05:11.099Z,100338.06
2022-11-30T11:07:49.919Z,100344.16
2022-11-30T11:10:19.840Z,100335.13
2022-11-30T11:12:50.542Z,100314.81
2022-11-30T11:15:23.921Z,100340.13
2022-11-30T11:17:53.890Z,100336.13
2022-11-30T11:20:34.261Z,100339.63
2022-11-30T11:23:02.875Z,100340.16
2022-11-30T11:25:36.016Z,100339.72
2022-11-30T11:28:09.607Z,100335.75
2022-11-30T11:30:38.392Z,100335.66
2022-11-30T11:33:21.454Z,100323.16
2022-11-30T11:35:50.586Z,100246.63
2022-11-30T11:38:28.092Z,100327.28
2022-11-30T11:40:58.766Z,100330.91
2022-11-30T11:43:29.632Z,100328.66
2022-11-30T11:46:01.595Z,100327.72
2022-11-30T11:48:35.947Z,100331.91
2022-11-30T11:51:07.799Z,100332.59
2022-11-30T11:53:47.368Z,100333.00
2022-11-30T11:56:23.189Z,100326.22
2022-11-30T11:58:56.123Z,100334.13
2022-11-30T12:01:40.699Z,100336.50
2022-11-30T12:04:32.457Z,100327.88
2022-11-30T12:07:03.371Z,100344.75
2022-11-30T12:09:37.350Z,100334.34
2022-11-30T12:12:05.498Z,100332.00
2022-11-30T12:14:35.202Z,100336.31
2022-11-30T12:17:15.482Z,100336.84
2022-11-30T12:19:54.263Z,100339.59
2022-11-30T12:22:51.095Z,100336.31
2022-11-30T12:25:26.462Z,100331.97
2022-11-30T12:28:08.887Z,100340.38
2022-11-30T12:30:53.811Z,100331.81
2022-11-30T12:33:36.704Z,100324.31
2022-11-30T12:36:17.473Z,100342.75
2022-11-30T12:38:49.858Z,100344.34
2022-11-30T12:41:32.781Z,100340.50
2022-11-30T12:44:16.612Z,100338.28
2022-11-30T12:46:54.782Z,100337.28
2022-11-30T12:49:36.981Z,100342.69
2022-11-30T12:52:20.417Z,100334.97
2022-11-30T12:54:56.879Z,100332.78
2022-11-30T12:57:28.298Z,100331.41
2022-11-30T13:00:07.032Z,100331.63
2022-11-30T13:03:00.249Z,100333.88
2022-11-30T13:05:33.615Z,100324.81
2022-11-30T13:08:06.820Z,100334.53
2022-11-30T13:10:41.367Z,100336.31
2022-11-30T13:13:14.926Z,100333.44
2022-11-30T13:15:43.949Z,100336.44
2022-11-30T13:18:17.489Z,100332.56
2022-11-30T13:20:51.151Z,100329.09
2022-11-30T13:23:31.337Z,100327.22
2022-11-30T13:26:08.677Z,100332.91
2022-11-30T13:28:56.219Z,100327.00
2022-11-30T13:31:26.796Z,100292.16
2022-11-30T13:33:59.827Z,100332.03
2022-11-30T13:36:49.079Z,100335.59
2022-11-30T13:39:27.242Z,100338.94
2022-11-30T13:42:37.580Z,100351.91
2022-11-30T13:45:36.375Z,100340.94
2022-11-30T13:48:19.687Z,100344.03
2022-11-30T13:50:49.569Z,100344.78
2022-11-30T13:53:25.397Z,100340.44
2022-11-30T13:56:01.837Z,100344.19
2022-11-30T13:58:30.853Z,100351.44
2022-11-30T14:01:23.320Z,100344.19
2022-11-30T14:04:23.742Z,100273.22
2022-11-30T14:06:53.047Z,100340.63
2022-11-30T14:10:08.456Z,100350.75
2022-11-30T14:12:48.822Z,100341.81
2022-11-30T14:15:53.225Z,100354.13
2022-11-30T14:18:43.025Z,100353.44
2022-11-30T14:21:17.567Z,100354.06
2022-11-30T14:23:51.725Z,100352.03
2022-11-30T14:26:24.644Z,100360.38
2022-11-30T14:29:01.920Z,100360.91
2022-11-30T14:31:32.866Z,100361.25
2022-11-30T14:34:07.366Z,100356.50
2022-11-30T14:36:38.674Z,100366.50
2022-11-30T14:39:23.692Z,100364.38
2022-11-30T14:41:51.345Z,100357.13
2022-11-30T14:44:20.615Z,100354.75
2022-11-30T14:46:48.324Z,100355.13
2022-11-30T14:49:17.916Z,100358.38
2022-11-30T14:51:49.065Z,100353.41
2022-11-30T14:54:27.672Z,100351.41
2022-11-30T14:57:02.290Z,100324.16
2022-11-30T14:59:42.437Z,100361.78
2022-11-30T15:02:20.308Z,100352.72
2022-11-30T15:04:49.159Z,100359.09
2022-11-30T15:07:17.922Z,100356.25
2022-11-30T15:09:48.871Z,100358.84
2022-11-30T15:12:20.079Z,100366.63
2022-11-30T15:15:15.314Z,100356.97
2022-11-30T15:18:11.093Z,100357.06
2022-11-30T15:20:43.328Z,100367.47
2022-11-30T15:23:14.186Z,100357.56
2022-11-30T15:25:46.197Z,100355.34
2022-11-30T15:28:18.905Z,100360.13
2022-11-30T15:30:53.172Z,100362.69
2022-11-30T15:33:24.211Z,100357.63
2022-11-30T15:36:18.619Z,100362.09
2022-11-30T15:38:50.233Z,100367.22
2022-11-30T15:41:21.184Z,100368.09
2022-11-30T15:43:53.320Z,100368.91
2022-11-30T15:46:34.845Z,100374.50
2022-11-30T15:49:07.967Z,100364.59
2022-11-30T15:51:39.725Z,100368.41
2022-11-30T15:54:07.798Z,100377.75
2022-11-30T15:56:36.290Z,100373.31
2022-11-30T15:59:06.120Z,100373.31
2022-11-30T16:02:04.623Z,100370.41
2022-11-30T16:05:12.411Z,100374.25
2022-11-30T16:07:50.428Z,100373.47
2022-11-30T16:10:21.832Z,100382.03
2022-11-30T16:12:50.844Z,100381.44
2022-11-30T16:15:21.037Z,100390.03
2022-11-30T16:17:50.652Z,100381.25
2022-11-30T16:20:20.823Z,100381.03
2022-11-30T16:22:49.937Z,100395.38
2022-11-30T16:25:20.303Z,100392.88
2022-11-30T16:27:48.653Z,100391.31
2022-11-30T16:30:18.537Z,100394.59
2022-11-30T16:32:46.825Z,100389.13
2022-11-30T16:35:24.750Z,100378.00
2022-11-30T16:37:52.877Z,100397.38
2022-11-30T16:40:21.277Z,100398.44
2022-11-30T16:42:50.072Z,100389.75
2022-11-30T16:45:20.371Z,100401.63
2022-11-30T16:47:48.140Z,100395.56
2022-11-30T16:50:16.415Z,100398.66
2022-11-30T16:52:45.608Z,100401.19
2022-11-30T16:55:14.837Z,100390.56
2022-11-30T16:57:42.850Z,100407.47
2022-11-30T17:00:13.473Z,100408.34
2022-11-30T17:02:45.307Z,100406.56
2022-11-30T17:05:14.908Z,100413.53
2022-11-30T17:07:43.988Z,100406.13
2022-11-30T17:10:13.857Z,100413.97
2022-11-30T17:12:42.613Z,100424.59
2022-11-30T17:15:15.227Z,100427.78
2022-11-30T17:17:43.207Z,100432.22
2022-11-30T17:20:11.901Z,100432.13
2022-11-30T17:22:39.956Z,100427.34
2022-11-30T17:25:13.295Z,100427.00
2022-11-30T17:27:42.681Z,100413.22
2022-11-30T17:30:11.921Z,100434.31
2022-11-30T17:32:39.557Z,100433.63
2022-11-30T17:35:08.718Z,100436.34
2022-11-30T17:37:36.709Z,100438.06
2022-11-30T17:40:05.082Z,100439.53
2022-11-30T17:42:32.740Z,100444.69
2022-11-30T17:45:01.763Z,100437.47
2022-11-30T17:47:29.339Z,100448.53
2022-11-30T17:49:57.624Z,100434.19
2022-11-30T17:52:25.340Z,100440.31
2022-11-30T17:54:53.038Z,100444.88
2022-11-30T17:57:20.724Z,100451.06
2022-11-30T17:59:48.428Z,100452.19
2022-11-30T18:02:17.483Z,100449.00
2022-11-30T18:04:45.404Z,100446.63
2022-11-30T18:07:13.267Z,100458.25
2022-11-30T18:09:42.699Z,100444.78
2022-11-30T18:12:11.752Z,100459.72
2022-11-30T18:14:39.517Z,100444.47
2022-11-30T18:17:07.262Z,100443.31
2022-11-30T18:19:36.373Z,100449.31
2022-11-30T18:22:04.021Z,100451.22
2022-11-30T18:24:31.705Z,100457.50
2022-11-30T18:26:59.314Z,100457.69
2022-11-30T18:29:27.062Z,100457.41
2022-11-30T18:31:54.715Z,100452.81
2022-11-30T18:34:22.791Z,100459.34
2022-11-30T18:36:51.859Z,100455.53
2022-11-30T18:39:19.515Z,100464.19
2022-11-30T18:41:47.156Z,100462.16
2022-11-30T18:44:14.813Z,100463.50
2022-11-30T18:46:42.499Z,100458.34
2022-11-30T18:49:10.210Z,100461.31
2022-11-30T18:51:38.107Z,100443.22
2022-11-30T18:54:08.889Z,100462.47
2022-11-30T18:56:39.215Z,100430.97
2022-11-30T18:59:09.062Z,100468.19
2022-11-30T19:01:37.348Z,100402.81
2022-11-30T19:04:07.072Z,100463.56
2022-11-30T19:06:35.447Z,100471.06
2022-11-30T19:09:06.282Z,100475.78
2022-11-30T19:11:35.922Z,100474.72
2022-11-30T19:14:04.922Z,100469.88
2022-11-30T19:16:34.340Z,100471.66
2022-11-30T19:19:03.437Z,100482.38
2022-11-30T19:21:31.165Z,100489.09
2022-11-30T19:23:59.270Z,100488.28
2022-11-30T19:26:28.555Z,100492.03
2022-11-30T19:28:58.931Z,100490.22
2022-11-30T19:31:27.179Z,100489.97
2022-11-30T19:33:56.303Z,100485.78
2022-11-30T19:36:25.609Z,100492.06
2022-11-30T19:38:53.447Z,100492.28
2022-11-30T19:41:22.015Z,100499.94
2022-11-30T19:44:01.073Z,100498.59
2022-11-30T19:46:33.893Z,100506.19
2022-11-30T19:49:02.355Z,100511.09
2022-11-30T19:51:31.153Z,100493.50
2022-11-30T19:54:00.202Z,100500.22
2022-11-30T19:56:29.980Z,100502.38
2022-11-30T19:59:04.007Z,100511.47
2022-11-30T20:01:35.211Z,100509.63
2022-11-30T20:04:03.331Z,100514.59
2022-11-30T20:06:34.308Z,100513.25
2022-11-30T20:09:03.185Z,100522.84
2022-11-30T20:11:31.216Z,100524.94
2022-11-30T20:14:00.160Z,100514.91
2022-11-30T20:16:28.563Z,100526.88
2022-11-30T20:19:00.598Z,100518.22
2022-11-30T20:21:30.459Z,100525.63
2022-11-30T20:23:59.987Z,100518.69
2022-11-30T20:26:29.939Z,100528.91
2022-11-30T20:28:58.934Z,100523.22
2022-11-30T20:31:28.214Z,100525.75
2022-11-30T20:33:57.410Z,100516.28
2022-11-30T20:36:25.120Z,100519.84
2022-11-30T20:38:52.856Z,100525.41
2022-11-30T20:41:22.844Z,100520.84
2022-11-30T20:43:51.078Z,100523.22
2022-11-30T20:46:21.562Z,100515.44
2022-11-30T20:48:50.093Z,100526.75
2022-11-30T20:51:36.615Z,100529.63
2022-11-30T20:54:07.317Z,100508.41
2022-11-30T20:56:35.248Z,100529.16
2022-11-30T20:59:05.028Z,100532.91
2022-11-30T21:01:32.994Z,100533.13
2022-11-30T21:04:19.702Z,100533.59
2022-11-30T21:07:08.968Z,100528.91
2022-11-30T21:09:56.866Z,100531.50
2022-11-30T21:12:44.822Z,100532.91
2022-11-30T21:15:32.822Z,100535.31
2022-11-30T21:18:20.807Z,100534.53
2022-11-30T21:21:11.956Z,100530.03
2022-11-30T21:24:03.005Z,100529.56
2022-11-30T21:26:51.181Z,100539.06
2022-11-30T21:29:39.140Z,100531.84
2022-11-30T21:32:27.133Z,100530.03
2022-11-30T21:35:15.432Z,100528.00
2022-11-30T21:38:03.359Z,100532.31
2022-11-30T21:40:56.449Z,100542.16
2022-11-30T21:43:44.387Z,100538.88
2022-11-30T21:46:32.867Z,100539.47
2022-11-30T21:49:20.977Z,100543.91
2022-11-30T21:52:08.974Z,100544.06
2022-11-30T21:54:56.921Z,100546.56
2022-11-30T21:57:46.183Z,100530.91
2022-11-30T22:00:34.119Z,100539.00
2022-11-30T22:03:22.337Z,100533.00
2022-11-30T22:06:12.338Z,100545.00
2022-11-30T22:09:03.215Z,100524.97
2022-11-30T22:11:51.511Z,100543.25
2022-11-30T22:14:40.803Z,100542.59
2022-11-30T22:17:28.718Z,100543.03
2022-11-30T22:20:16.879Z,100540.88
2022-11-30T22:23:04.779Z,100544.84
2022-11-30T22:25:52.704Z,100541.09
2022-11-30T22:28:42.074Z,100541.47
2022-11-30T22:31:33.906Z,100539.97
2022-11-30T22:34:22.512Z,100550.00
2022-11-30T22:37:10.438Z,100547.63
2022-11-30T22:39:58.401Z,100552.19
2022-11-30T22:42:46.425Z,100556.25
2022-11-30T22:45:34.335Z,100548.28
2022-11-30T22:48:23.616Z,100547.81
2022-11-30T22:51:13.717Z,100546.72
2022-11-30T22:54:02.385Z,100552.38
2022-11-30T22:56:50.312Z,100544.72
2022-11-30T22:59:38.249Z,100545.09
2022-11-30T23:02:26.257Z,100542.16
2022-11-30T23:05:15.739Z,100540.22
2022-11-30T23:08:03.698Z,100541.25
2022-11-30T23:10:51.729Z,100542.59
2022-11-30T23:13:40.858Z,100531.19
2022-11-30T23:16:28.864Z,100537.66
2022-11-30T23:19:18.061Z,100539.47
2022-11-30T23:22:07.334Z,100539.56
2022-11-30T23:24:55.821Z,100537.44
2022-11-30T23:27:43.716Z,100537.13
2022-11-30T23:30:32.735Z,100533.47
2022-11-30T23:33:20.626Z,100536.97
2022-11-30T23:36:09.855Z,100435.50
2022-11-30T23:39:00.956Z,100535.13
2022-11-30T23:41:49.018Z,100537.75
2022-11-30T23:44:36.972Z,100535.44
2022-11-30T23:47:24.890Z,100531.34
2022-11-30T23:50:13.043Z,100530.44
2022-11-30T23:53:00.949Z,100526.81
2022-11-30T23:55:50.372Z,100533.72
2022-11-30T23:58:39.499Z,100522.34
